aviador You're here:

YPPD Decoded Metar

PORT HEDLAND in AUSTRALIA
Report Time2017-09-24 11:30:00
UTC Time2017-09-24 12:01:43
Flight Rules vfr VFR
Wind290° at 16 kt
W.Decomp.*RWY 32: 13.7 kt HW 8.2 kt LCW
RWY 36: 5.2 kt HW 15.1 kt LCW
W.Rank290° ranks 5
Current wind is above 290° avg. (9.0)
Visibility9999 m
Phenomena:N/A
Clouds:N/A
Expected CloudBase > 2,800 ft AGL from Temp-Dew spread
CeilingNone
Temp23°C (ISA +8)
Dew Point16°C (65% RH)
AAT19.2°C
QNH1010 hPa
Density Alt1,299 ft
Elevation20 ft
Report Wrong Elevation
Raw Report
YPPD 241130Z AUTO 29016KT 9999 // NCD 23/16 Q1010=

Extra information for YPPD:More info

Metar Taf Metar & Taf Last 4 Metars F.Rules Stats Wind Profile Meteogram Temp Stats Airport Information Weather charts Add Link Nearby VenuesMetar ALERT Operation Metar Decoded Social comments